createdAt,value
2019-02-16T00:01:29.209Z,102.80
2019-02-16T00:11:30.647Z,160.93
2019-02-16T00:21:32.188Z,90.27
2019-02-16T00:31:34.026Z,79.73
2019-02-16T00:41:35.345Z,76.67
2019-02-16T00:51:36.843Z,176.17
2019-02-16T01:01:39.272Z,87.80
2019-02-16T01:11:40.660Z,74.90
2019-02-16T01:21:42.096Z,66.20
2019-02-16T01:31:44.041Z,65.93
2019-02-16T01:41:47.480Z,60.00
2019-02-16T01:51:48.753Z,61.37
2019-02-16T02:01:51.241Z,55.43
2019-02-16T02:11:52.656Z,52.30
2019-02-16T02:21:54.199Z,56.50
2019-02-16T02:31:55.669Z,57.10
2019-02-16T02:41:57.093Z,47.73
2019-02-16T02:51:58.593Z,45.03
2019-02-16T03:02:01.092Z,50.67
2019-02-16T03:12:02.613Z,46.77
2019-02-16T03:22:04.151Z,40.10
2019-02-16T03:32:09.367Z,44.47
2019-02-16T03:42:10.772Z,38.53
2019-02-16T03:52:14.118Z,89.00
2019-02-16T04:02:16.540Z,126.53
2019-02-16T04:12:17.953Z,46.97
2019-02-16T04:22:24.673Z,44.47
2019-02-16T04:32:23.020Z,39.50
2019-02-16T04:42:24.428Z,37.00
2019-02-16T04:52:34.434Z,45.67
2019-02-16T05:02:30.856Z,67.53
2019-02-16T05:12:32.272Z,58.83
2019-02-16T05:22:33.804Z,56.47
2019-02-16T05:32:35.285Z,104.17
2019-02-16T05:42:36.697Z,52.67
2019-02-16T05:52:38.143Z,35.47
2019-02-16T06:02:40.516Z,50.63
2019-02-16T06:12:41.832Z,50.90
2019-02-16T06:22:43.353Z,40.63
2019-02-16T06:32:44.672Z,47.27
2019-02-16T06:42:46.073Z,39.83
2019-02-16T06:52:47.561Z,38.47
2019-02-16T07:02:50.033Z,38.60
2019-02-16T07:12:51.437Z,62.70
2019-02-16T07:22:52.937Z,146.73
2019-02-16T07:32:54.352Z,90.57
2019-02-16T07:42:56.465Z,61.53
2019-02-16T07:53:08.766Z,60.43
2019-02-16T08:03:18.009Z,66.00
2019-02-16T08:13:33.325Z,63.80
2019-02-16T08:23:53.633Z,49.88
2019-02-16T08:33:56.856Z,43.55
2019-02-16T08:44:05.957Z,41.42
2019-02-16T08:54:26.185Z,32.88
2019-02-16T09:04:31.752Z,34.40
2019-02-16T09:14:47.132Z,34.48
2019-02-16T09:24:50.556Z,52.75
2019-02-16T09:34:53.803Z,40.58
2019-02-16T09:44:59.621Z,25.70
2019-02-16T09:55:05.811Z,14.07
2019-02-16T10:05:13.548Z,13.20
2019-02-16T10:15:16.928Z,10.08
2019-02-16T10:25:32.464Z,15.28
2019-02-16T10:35:54.025Z,20.85
2019-02-16T10:46:06.656Z,22.02
2019-02-16T10:56:25.301Z,16.35
2019-02-16T11:06:36.333Z,15.35
2019-02-16T11:16:48.755Z,11.53
2019-02-16T11:27:04.465Z,8.80
2019-02-16T11:37:19.952Z,12.53
2019-02-16T11:47:39.744Z,9.93
2019-02-16T11:57:55.477Z,7.00
2019-02-16T12:08:07.419Z,16.00
2019-02-16T12:18:16.781Z,18.47
2019-02-16T12:28:38.849Z,12.13
2019-02-16T12:38:42.192Z,18.83
2019-02-16T12:48:57.778Z,19.97
2019-02-16T12:59:01.161Z,16.77
2019-02-16T13:09:19.640Z,19.27
2019-02-16T13:19:29.037Z,15.17
2019-02-16T13:29:32.436Z,15.77
2019-02-16T13:39:38.513Z,11.63
2019-02-16T13:49:41.808Z,27.77
2019-02-16T13:59:45.138Z,12.13
2019-02-16T14:10:05.310Z,15.97
2019-02-16T14:20:07.199Z,20.97
2019-02-16T14:30:11.204Z,20.80
2019-02-16T14:40:12.638Z,22.53
2019-02-16T14:50:14.041Z,35.97
2019-02-16T15:00:15.535Z,37.73
2019-02-16T15:10:18.597Z,34.33
2019-02-16T15:20:20.065Z,30.07
2019-02-16T15:30:21.613Z,37.50
2019-02-16T15:40:23.097Z,115.00
2019-02-16T15:50:24.524Z,473.87
2019-02-16T16:00:27.205Z,205.67
2019-02-16T16:10:35.040Z,98.67
2019-02-16T16:20:44.465Z,66.10
2019-02-16T16:30:48.045Z,98.53
2019-02-16T16:40:51.666Z,83.30
2019-02-16T16:51:01.064Z,103.40
2019-02-16T17:01:05.164Z,151.67
2019-02-16T17:11:11.356Z,245.73
2019-02-16T17:21:15.724Z,387.87
2019-02-16T17:31:19.030Z,419.27
2019-02-16T17:41:28.565Z,417.20
2019-02-16T17:51:34.504Z,394.60
2019-02-16T18:01:56.100Z,352.60
2019-02-16T18:12:03.238Z,515.70
2019-02-16T18:22:12.437Z,439.23
2019-02-16T18:32:30.800Z,506.03
2019-02-16T18:42:33.068Z,498.20
2019-02-16T18:52:45.392Z,783.00
2019-02-16T19:02:54.697Z,516.00
2019-02-16T19:12:58.989Z,243.00
2019-02-16T19:23:02.313Z,335.43
2019-02-16T19:33:05.749Z,214.00
2019-02-16T19:43:09.136Z,112.70
2019-02-16T19:53:32.323Z,163.90
2019-02-16T20:03:35.624Z,505.37
2019-02-16T20:13:39.105Z,104.93
2019-02-16T20:23:42.434Z,59.50
2019-02-16T20:33:48.710Z,59.07
2019-02-16T20:43:53.328Z,95.67
2019-02-16T20:54:02.447Z,58.57
2019-02-16T21:04:05.795Z,84.80
2019-02-16T21:14:12.849Z,104.83
2019-02-16T21:24:18.744Z,723.67
2019-02-16T21:34:29.779Z,202.47
2019-02-16T21:44:33.515Z,149.27
2019-02-16T21:54:36.877Z,167.50
2019-02-16T22:04:52.161Z,137.63
2019-02-16T22:14:54.655Z,193.20
2019-02-16T22:24:56.077Z,253.70
2019-02-16T22:34:57.606Z,358.33
2019-02-16T22:44:59.108Z,240.67
2019-02-16T22:55:00.509Z,234.10
2019-02-16T23:05:02.201Z,204.90
2019-02-16T23:15:08.535Z,187.97
2019-02-16T23:25:10.153Z,167.97
2019-02-16T23:35:11.753Z,190.10
2019-02-16T23:45:13.445Z,139.93
2019-02-16T23:55:14.858Z,124.73
